Time;durP1;ratioP1;P1;durP2;ratioP2;P2;SDS_P1;SDS_P2;PMS_P1;PMS_P2;Temp;Humidity;BMP_temperature;BMP_pressure;BME280_temperature;BME280_humidity;BME280_pressure;Samples;Min_cycle;Max_cycle;Signal;HPM_P1;HPM_P2
2021/11/05 00:00:51;;;;;;;11.13;8.75;;;;;;;;;;4954996;29;20118;-76
2021/11/05 00:03:16;;;;;;;12.57;9.13;;;;;;;;;;4953248;29;20512;-76
2021/11/05 00:05:42;;;;;;;10.85;7.57;;;;;;;;;;4955921;29;20043;-75
2021/11/05 00:08:08;;;;;;;12.10;9.18;;;;;;;;;;4955029;29;20046;-76
2021/11/05 00:10:42;;;;;;;10.95;7.90;;;;;;;;;;4955348;29;20047;-76
2021/11/05 00:13:09;;;;;;;11.23;8.82;;;;;;;;;;4955174;29;20050;-76
2021/11/05 00:15:35;;;;;;;13.02;9.27;;;;;;;;;;4954870;29;20054;-75
2021/11/05 00:18:00;;;;;;;15.30;10.23;;;;;;;;;;4955151;29;20039;-76
2021/11/05 00:20:27;;;;;;;13.40;9.63;;;;;;;;;;4954527;29;20031;-76
2021/11/05 00:22:52;;;;;;;12.65;9.93;;;;;;;;;;4953917;29;20055;-76
2021/11/05 00:25:18;;;;;;;11.48;8.30;;;;;;;;;;4951106;29;20058;-76
2021/11/05 00:27:44;;;;;;;12.60;9.43;;;;;;;;;;4937029;29;20043;-75
2021/11/05 00:30:11;;;;;;;13.13;9.15;;;;;;;;;;4954668;29;20461;-75
2021/11/05 00:32:37;;;;;;;15.50;9.80;;;;;;;;;;4954962;29;20054;-76
2021/11/05 00:35:03;;;;;;;17.27;10.77;;;;;;;;;;4954913;29;20136;-76
2021/11/05 00:37:29;;;;;;;14.40;10.50;;;;;;;;;;4954306;29;20039;-75
2021/11/05 00:39:56;;;;;;;15.43;10.02;;;;;;;;;;4954603;29;20123;-75
2021/11/05 00:42:22;;;;;;;14.85;9.85;;;;;;;;;;4954737;29;20207;-75
2021/11/05 00:44:47;;;;;;;14.32;10.52;;;;;;;;;;4953644;29;20599;-76
2021/11/05 00:47:15;;;;;;;12.57;10.05;;;;;;;;;;4935242;29;20128;-75
2021/11/05 00:49:41;;;;;;;12.57;9.90;;;;;;;;;;4937090;29;20427;-76
2021/11/05 00:52:06;;;;;;;16.67;10.30;;;;;;;;;;4936175;29;20043;-75
2021/11/05 00:54:32;;;;;;;13.85;10.48;;;;;;;;;;4954088;29;20097;-76
2021/11/05 00:56:58;;;;;;;14.13;10.05;;;;;;;;;;4954317;29;20047;-76
2021/11/05 00:59:23;;;;;;;13.68;11.35;;;;;;;;;;4953797;29;20043;-76
2021/11/05 01:01:49;;;;;;;14.40;10.73;;;;;;;;;;4953994;29;20080;-75
2021/11/05 01:04:14;;;;;;;12.77;10.05;;;;;;;;;;4953274;29;20050;-77
2021/11/05 01:06:40;;;;;;;14.05;11.00;;;;;;;;;;4953893;29;20062;-75
2021/11/05 01:09:05;;;;;;;15.43;10.27;;;;;;;;;;4952378;29;20496;-75
2021/11/05 01:11:31;;;;;;;16.08;10.50;;;;;;;;;;4954111;29;20043;-76
2021/11/05 01:13:57;;;;;;;15.93;11.13;;;;;;;;;;4953054;28;20055;-76
2021/11/05 01:16:23;;;;;;;16.48;12.50;;;;;;;;;;4953237;29;20411;-76
2021/11/05 01:18:48;;;;;;;15.45;11.60;;;;;;;;;;4953483;29;20488;-75
2021/11/05 01:21:15;;;;;;;17.40;11.30;;;;;;;;;;4953677;29;20043;-75
2021/11/05 01:23:40;;;;;;;16.15;11.90;;;;;;;;;;4953226;29;20074;-75
2021/11/05 01:26:06;;;;;;;15.32;10.63;;;;;;;;;;4952894;29;20051;-75
2021/11/05 01:28:31;;;;;;;17.35;12.60;;;;;;;;;;4953831;29;20067;-75
2021/11/05 01:30:57;;;;;;;19.55;12.90;;;;;;;;;;4950926;29;20496;-76
2021/11/05 01:33:23;;;;;;;17.58;12.75;;;;;;;;;;4953648;29;20043;-74
2021/11/05 01:35:49;;;;;;;14.45;10.55;;;;;;;;;;4954136;29;20078;-76
2021/11/05 01:38:15;;;;;;;16.70;11.15;;;;;;;;;;4952463;28;20050;-74
2021/11/05 01:40:42;;;;;;;16.45;12.60;;;;;;;;;;4954002;29;20122;-76
2021/11/05 01:43:07;;;;;;;14.95;11.00;;;;;;;;;;4953760;29;20114;-76
2021/11/05 01:45:33;;;;;;;17.27;12.18;;;;;;;;;;4952782;29;20838;-76
2021/11/05 01:47:59;;;;;;;15.57;11.95;;;;;;;;;;4936250;29;20050;-75
2021/11/05 01:50:25;;;;;;;18.08;12.00;;;;;;;;;;4953440;29;20043;-76
2021/11/05 01:52:51;;;;;;;15.13;12.13;;;;;;;;;;4950380;29;20039;-75
2021/11/05 01:55:17;;;;;;;15.15;11.52;;;;;;;;;;4952026;29;20051;-76
2021/11/05 01:57:44;;;;;;;15.18;11.85;;;;;;;;;;4953974;29;20047;-76
2021/11/05 02:00:16;;;;;;;15.57;11.70;;;;;;;;;;4952951;29;20043;-75
2021/11/05 02:02:42;;;;;;;13.45;11.48;;;;;;;;;;4952721;29;20566;-76
2021/11/05 02:05:08;;;;;;;14.75;10.77;;;;;;;;;;4952606;29;20050;-75
2021/11/05 02:07:35;;;;;;;14.65;11.50;;;;;;;;;;4952344;29;20799;-76
2021/11/05 02:10:05;;;;;;;15.98;11.55;;;;;;;;;;4953070;29;20073;-77
2021/11/05 02:12:31;;;;;;;18.58;12.23;;;;;;;;;;4952811;29;20050;-76
2021/11/05 02:14:58;;;;;;;16.95;11.75;;;;;;;;;;4949634;29;20448;-75
2021/11/05 02:17:24;;;;;;;15.98;11.80;;;;;;;;;;4953240;29;20091;-76
2021/11/05 02:19:50;;;;;;;20.83;12.00;;;;;;;;;;4953171;29;20047;-76
2021/11/05 02:22:17;;;;;;;17.30;11.88;;;;;;;;;;4952480;29;20047;-76
2021/11/05 02:24:42;;;;;;;18.85;13.43;;;;;;;;;;4952991;29;20055;-76
2021/11/05 02:27:09;;;;;;;17.10;12.20;;;;;;;;;;4952930;29;20441;-76
2021/11/05 02:29:35;;;;;;;17.35;12.75;;;;;;;;;;4952455;29;20047;-76
2021/11/05 02:32:04;;;;;;;15.05;11.32;;;;;;;;;;4952915;29;20496;-75
2021/11/05 02:34:32;;;;;;;20.33;12.45;;;;;;;;;;4935736;29;20043;-77
2021/11/05 02:36:58;;;;;;;18.33;11.35;;;;;;;;;;4950158;29;20102;-76
2021/11/05 02:39:24;;;;;;;16.60;12.13;;;;;;;;;;4951140;29;20035;-76
2021/11/05 02:41:51;;;;;;;14.75;10.55;;;;;;;;;;4952515;29;20098;-75
2021/11/05 02:44:17;;;;;;;18.70;12.48;;;;;;;;;;4934317;29;20075;-76
2021/11/05 02:46:43;;;;;;;13.88;11.38;;;;;;;;;;4952355;29;20496;-76
2021/11/05 02:49:13;;;;;;;21.52;13.70;;;;;;;;;;4951722;29;20074;-76
2021/11/05 02:51:39;;;;;;;18.45;12.70;;;;;;;;;;4952435;29;20393;-76
2021/11/05 02:54:05;;;;;;;17.20;13.32;;;;;;;;;;4951517;29;20051;-76
2021/11/05 02:56:31;;;;;;;17.45;12.90;;;;;;;;;;4952602;29;20130;-75
2021/11/05 02:58:58;;;;;;;18.17;11.25;;;;;;;;;;4950118;29;20171;-77
2021/11/05 03:01:24;;;;;;;15.07;11.07;;;;;;;;;;4951320;29;20043;-75
2021/11/05 03:03:50;;;;;;;18.63;13.75;;;;;;;;;;4951727;29;20047;-75
2021/11/05 03:06:15;;;;;;;18.17;12.05;;;;;;;;;;4950074;29;20388;-75
2021/11/05 03:08:41;;;;;;;16.70;11.82;;;;;;;;;;4951644;29;20047;-76
2021/11/05 03:11:11;;;;;;;18.35;11.70;;;;;;;;;;4952217;29;20390;-76
2021/11/05 03:13:37;;;;;;;18.27;14.60;;;;;;;;;;4933831;29;20480;-75
2021/11/05 03:16:03;;;;;;;16.63;12.32;;;;;;;;;;4952102;29;20043;-75
2021/11/05 03:18:31;;;;;;;15.02;11.80;;;;;;;;;;4951448;29;20047;-76
2021/11/05 03:20:56;;;;;;;22.77;15.95;;;;;;;;;;4932144;29;20429;-76
2021/11/05 03:23:22;;;;;;;20.70;12.93;;;;;;;;;;4952028;29;20075;-76
2021/11/05 03:25:48;;;;;;;20.67;14.77;;;;;;;;;;4952079;29;20055;-74
2021/11/05 03:28:13;;;;;;;18.75;14.27;;;;;;;;;;4952009;29;20055;-75
2021/11/05 03:30:39;;;;;;;18.27;13.73;;;;;;;;;;4952601;29;20111;-75
2021/11/05 03:33:04;;;;;;;18.48;12.95;;;;;;;;;;4952353;29;20039;-75
2021/11/05 03:35:30;;;;;;;17.92;12.88;;;;;;;;;;4951198;29;20512;-76
2021/11/05 03:37:55;;;;;;;17.52;13.10;;;;;;;;;;4950605;29;20043;-76
2021/11/05 03:40:22;;;;;;;22.58;13.35;;;;;;;;;;4950910;29;20047;-76
2021/11/05 03:42:48;;;;;;;20.42;13.75;;;;;;;;;;4948170;29;20054;-74
2021/11/05 03:45:18;;;;;;;18.42;13.57;;;;;;;;;;4934505;29;20073;-77
2021/11/05 03:47:43;;;;;;;20.48;14.15;;;;;;;;;;4951846;29;20090;-75
2021/11/05 03:50:09;;;;;;;20.63;14.10;;;;;;;;;;4951462;29;20194;-76
2021/11/05 03:52:34;;;;;;;18.45;13.40;;;;;;;;;;4951654;29;20047;-74
2021/11/05 03:55:02;;;;;;;16.23;12.43;;;;;;;;;;4952115;29;20514;-74
2021/11/05 03:57:27;;;;;;;21.50;13.65;;;;;;;;;;4950359;29;20047;-74
2021/11/05 03:59:53;;;;;;;17.63;13.02;;;;;;;;;;4951929;29;20054;-75
2021/11/05 04:02:18;;;;;;;22.73;13.00;;;;;;;;;;4953690;28;20130;-75
2021/11/05 04:04:44;;;;;;;18.27;12.55;;;;;;;;;;4952859;29;20058;-76
2021/11/05 04:07:09;;;;;;;18.45;12.32;;;;;;;;;;4954976;29;20070;-75
2021/11/05 04:09:35;;;;;;;18.02;13.20;;;;;;;;;;4955042;29;20073;-75
2021/11/05 04:12:00;;;;;;;16.00;12.55;;;;;;;;;;4954978;29;20047;-75
2021/11/05 04:14:26;;;;;;;17.23;12.77;;;;;;;;;;4954689;29;20039;-75
2021/11/05 04:16:51;;;;;;;17.83;12.10;;;;;;;;;;4955163;29;20405;-76
2021/11/05 04:19:17;;;;;;;15.55;12.38;;;;;;;;;;4954031;29;20151;-76
2021/11/05 04:21:43;;;;;;;20.05;13.80;;;;;;;;;;4955005;29;20048;-75
2021/11/05 04:24:08;;;;;;;17.17;12.85;;;;;;;;;;4954658;29;20043;-76
2021/11/05 04:26:34;;;;;;;17.60;12.93;;;;;;;;;;4951039;29;20059;-76
2021/11/05 04:29:00;;;;;;;20.23;14.02;;;;;;;;;;4954302;29;20058;-75
2021/11/05 04:31:25;;;;;;;16.83;11.35;;;;;;;;;;4954784;29;20424;-77
2021/11/05 04:33:51;;;;;;;17.83;12.95;;;;;;;;;;4952378;29;20078;-75
2021/11/05 04:36:18;;;;;;;17.85;13.02;;;;;;;;;;4954906;29;20065;-75
2021/11/05 04:38:44;;;;;;;18.17;13.13;;;;;;;;;;4937817;29;20071;-74
2021/11/05 04:41:09;;;;;;;17.70;12.98;;;;;;;;;;4954533;29;20078;-76
2021/11/05 04:43:35;;;;;;;17.02;12.40;;;;;;;;;;4954885;29;20130;-75
2021/11/05 04:46:00;;;;;;;17.10;12.75;;;;;;;;;;4954966;29;20126;-74
2021/11/05 04:48:26;;;;;;;16.05;11.00;;;;;;;;;;4952458;29;20130;-75
2021/11/05 04:50:51;;;;;;;15.20;11.23;;;;;;;;;;4954400;29;20100;-75
2021/11/05 04:53:17;;;;;;;14.05;10.68;;;;;;;;;;4953880;29;20067;-77
2021/11/05 04:55:42;;;;;;;16.95;10.88;;;;;;;;;;4954791;29;20043;-75
2021/11/05 04:58:08;;;;;;;12.80;9.27;;;;;;;;;;4954072;29;20039;-76
2021/11/05 05:00:34;;;;;;;13.20;9.70;;;;;;;;;;4954760;29;20857;-75
2021/11/05 05:02:59;;;;;;;12.82;10.05;;;;;;;;;;4954584;29;20051;-75
2021/11/05 05:05:27;;;;;;;14.05;10.52;;;;;;;;;;4953832;29;20047;-75
2021/11/05 05:07:53;;;;;;;11.48;9.35;;;;;;;;;;4954606;29;20043;-76
2021/11/05 05:10:19;;;;;;;12.15;9.68;;;;;;;;;;4951923;29;20054;-76
2021/11/05 05:12:45;;;;;;;11.40;9.35;;;;;;;;;;4952899;28;20043;-77
2021/11/05 05:15:12;;;;;;;12.05;9.18;;;;;;;;;;4953673;28;20043;-76
2021/11/05 05:17:38;;;;;;;11.57;8.90;;;;;;;;;;4953566;29;20071;-75
2021/11/05 05:20:09;;;;;;;11.75;8.85;;;;;;;;;;4952300;29;20081;-75
2021/11/05 05:22:36;;;;;;;10.32;7.97;;;;;;;;;;4952817;29;20094;-75
2021/11/05 05:25:04;;;;;;;11.52;10.32;;;;;;;;;;4953128;29;20416;-75
2021/11/05 05:27:30;;;;;;;9.80;7.68;;;;;;;;;;4951813;29;20055;-75
2021/11/05 05:29:56;;;;;;;10.02;8.80;;;;;;;;;;4953133;29;20074;-75
2021/11/05 05:32:22;;;;;;;10.80;7.88;;;;;;;;;;4948653;29;20138;-74
2021/11/05 05:34:48;;;;;;;12.00;8.27;;;;;;;;;;4951706;29;20122;-75
2021/11/05 05:37:13;;;;;;;9.65;7.78;;;;;;;;;;4953279;29;20043;-75
2021/11/05 05:39:39;;;;;;;9.98;7.70;;;;;;;;;;4953990;29;20099;-74
2021/11/05 05:42:06;;;;;;;9.75;7.68;;;;;;;;;;4953250;29;20094;-75
2021/11/05 05:44:31;;;;;;;10.00;7.15;;;;;;;;;;4953942;29;20082;-76
2021/11/05 05:46:57;;;;;;;9.98;7.32;;;;;;;;;;4953470;29;20043;-75
2021/11/05 05:49:22;;;;;;;8.02;7.22;;;;;;;;;;4951689;29;20054;-76
2021/11/05 05:51:48;;;;;;;11.45;7.28;;;;;;;;;;4953792;29;20039;-75
2021/11/05 05:54:13;;;;;;;8.00;7.20;;;;;;;;;;4950425;29;20767;-77
2021/11/05 05:56:39;;;;;;;8.38;6.63;;;;;;;;;;4952571;29;20126;-76
2021/11/05 05:59:05;;;;;;;8.13;7.13;;;;;;;;;;4952933;29;20082;-76
2021/11/05 06:01:30;;;;;;;10.13;7.30;;;;;;;;;;4953077;29;20154;-76
2021/11/05 06:03:59;;;;;;;8.35;6.53;;;;;;;;;;4952113;29;20070;-77
2021/11/05 06:06:27;;;;;;;7.45;6.65;;;;;;;;;;4953155;29;20051;-77
2021/11/05 06:08:52;;;;;;;7.82;6.72;;;;;;;;;;4933979;29;20035;-78
2021/11/05 06:11:18;;;;;;;7.35;5.65;;;;;;;;;;4952407;29;20405;-76
2021/11/05 06:13:43;;;;;;;7.72;6.40;;;;;;;;;;4952666;29;20039;-77
2021/11/05 06:16:10;;;;;;;6.38;5.78;;;;;;;;;;4949358;29;20055;-78
2021/11/05 06:18:35;;;;;;;7.65;5.95;;;;;;;;;;4951990;29;20050;-76
2021/11/05 06:21:01;;;;;;;7.50;6.03;;;;;;;;;;4935402;29;20043;-76
2021/11/05 06:23:27;;;;;;;7.45;6.63;;;;;;;;;;4935320;29;20039;-77
2021/11/05 06:25:52;;;;;;;7.63;4.97;;;;;;;;;;4951437;28;20424;-76
2021/11/05 06:28:18;;;;;;;7.75;5.78;;;;;;;;;;4952216;29;20058;-75
2021/11/05 06:30:43;;;;;;;7.97;7.18;;;;;;;;;;4953050;29;20051;-79
2021/11/05 06:33:09;;;;;;;8.43;7.03;;;;;;;;;;4952092;29;20147;-76
2021/11/05 06:35:34;;;;;;;9.75;7.22;;;;;;;;;;4952528;29;20587;-77
2021/11/05 06:38:00;;;;;;;13.13;8.40;;;;;;;;;;4950825;29;20097;-76
2021/11/05 06:40:25;;;;;;;10.93;7.30;;;;;;;;;;4951429;29;20047;-76
2021/11/05 06:42:51;;;;;;;8.45;6.85;;;;;;;;;;4952066;29;20044;-77
2021/11/05 06:45:16;;;;;;;8.07;6.85;;;;;;;;;;4952605;29;20551;-76
2021/11/05 06:47:42;;;;;;;6.18;5.47;;;;;;;;;;4951106;29;20070;-76
2021/11/05 06:50:09;;;;;;;5.88;5.28;;;;;;;;;;4952272;29;20048;-75
2021/11/05 06:52:35;;;;;;;6.53;5.85;;;;;;;;;;4935277;29;20047;-77
2021/11/05 06:55:05;;;;;;;7.32;6.38;;;;;;;;;;4950602;29;20051;-76
2021/11/05 06:57:30;;;;;;;6.72;5.00;;;;;;;;;;4952524;29;20043;-75
2021/11/05 06:59:57;;;;;;;5.47;4.88;;;;;;;;;;4949935;29;20420;-76
2021/11/05 07:02:23;;;;;;;5.38;4.88;;;;;;;;;;4951947;29;20051;-76
2021/11/05 07:04:48;;;;;;;9.43;7.05;;;;;;;;;;4952568;29;20456;-77
2021/11/05 07:07:13;;;;;;;5.55;4.85;;;;;;;;;;4952538;29;20114;-77
2021/11/05 07:09:39;;;;;;;5.75;5.07;;;;;;;;;;4951210;29;20040;-77
2021/11/05 07:12:06;;;;;;;9.63;5.18;;;;;;;;;;4951033;29;20044;-77
2021/11/05 07:14:31;;;;;;;4.97;4.47;;;;;;;;;;4932978;29;20094;-77
2021/11/05 07:16:57;;;;;;;5.05;4.53;;;;;;;;;;4933525;29;20047;-78
2021/11/05 07:19:24;;;;;;;4.43;4.03;;;;;;;;;;4950047;29;20125;-77
2021/11/05 07:21:58;;;;;;;4.63;3.45;;;;;;;;;;4948616;29;20051;-77
2021/11/05 07:24:25;;;;;;;4.70;4.25;;;;;;;;;;4950104;29;20043;-75
2021/11/05 07:26:51;;;;;;;4.60;4.10;;;;;;;;;;4934769;29;20050;-76
2021/11/05 07:29:23;;;;;;;4.90;4.47;;;;;;;;;;4951200;29;20138;-76
2021/11/05 07:31:49;;;;;;;3.92;3.63;;;;;;;;;;4951220;29;20043;-76
2021/11/05 07:34:15;;;;;;;4.85;4.38;;;;;;;;;;4951543;29;20063;-78
2021/11/05 07:36:40;;;;;;;4.28;3.90;;;;;;;;;;4950533;28;20063;-76
2021/11/05 07:39:07;;;;;;;3.92;3.53;;;;;;;;;;4954637;29;20046;-77
2021/11/05 07:41:34;;;;;;;5.75;3.40;;;;;;;;;;4936142;29;20047;-76
2021/11/05 07:43:59;;;;;;;3.90;3.60;;;;;;;;;;4950498;29;20050;-76
2021/11/05 07:46:25;;;;;;;5.47;3.65;;;;;;;;;;4937407;29;20047;-78
2021/11/05 07:48:50;;;;;;;3.85;3.05;;;;;;;;;;4955793;29;20744;-76
2021/11/05 07:51:16;;;;;;;4.22;3.85;;;;;;;;;;4955805;29;20043;-77
2021/11/05 07:53:43;;;;;;;3.88;3.58;;;;;;;;;;4955494;29;20037;-78
2021/11/05 07:56:08;;;;;;;5.43;4.05;;;;;;;;;;4955869;29;20035;-76
2021/11/05 07:58:34;;;;;;;4.13;3.67;;;;;;;;;;4955150;29;20091;-76
2021/11/05 08:01:00;;;;;;;3.70;3.35;;;;;;;;;;4955003;29;20050;-77
2021/11/05 08:03:25;;;;;;;3.95;3.55;;;;;;;;;;4955033;29;20086;-77
2021/11/05 08:05:51;;;;;;;3.80;3.50;;;;;;;;;;4953496;29;20055;-77
2021/11/05 08:08:16;;;;;;;3.92;3.63;;;;;;;;;;4945910;29;20092;-75
2021/11/05 08:10:42;;;;;;;4.47;4.07;;;;;;;;;;4935538;29;20619;-77
2021/11/05 08:13:08;;;;;;;5.30;4.78;;;;;;;;;;4935964;29;20040;-79
2021/11/05 08:15:34;;;;;;;6.28;4.93;;;;;;;;;;4935906;29;20107;-76
2021/11/05 08:17:59;;;;;;;4.70;4.30;;;;;;;;;;4918123;29;20056;-78
2021/11/05 08:20:25;;;;;;;4.07;3.63;;;;;;;;;;4935680;29;20365;-77
2021/11/05 08:22:50;;;;;;;4.95;4.53;;;;;;;;;;4935438;29;20059;-78
2021/11/05 08:25:18;;;;;;;5.85;4.68;;;;;;;;;;4934457;29;20090;-77
2021/11/05 08:27:44;;;;;;;5.38;4.32;;;;;;;;;;4941677;29;20055;-77
2021/11/05 08:30:15;;;;;;;6.55;5.00;;;;;;;;;;4954666;29;20101;-76
2021/11/05 08:32:40;;;;;;;4.97;4.25;;;;;;;;;;4935497;29;20185;-75
2021/11/05 08:35:08;;;;;;;6.63;4.53;;;;;;;;;;4954801;29;20587;-77
2021/11/05 08:37:34;;;;;;;6.03;4.80;;;;;;;;;;4954243;29;20047;-77
2021/11/05 08:40:00;;;;;;;5.65;4.95;;;;;;;;;;4953646;29;20047;-77
2021/11/05 08:42:26;;;;;;;6.60;5.47;;;;;;;;;;4927146;29;20086;-76
2021/11/05 08:44:52;;;;;;;5.80;5.00;;;;;;;;;;4934803;29;20504;-76
2021/11/05 08:47:19;;;;;;;5.25;4.75;;;;;;;;;;4933512;29;20058;-76
2021/11/05 08:49:49;;;;;;;5.95;4.57;;;;;;;;;;4915791;29;20130;-77
2021/11/05 08:52:17;;;;;;;7.82;5.70;;;;;;;;;;4933569;29;20101;-75
2021/11/05 08:54:43;;;;;;;5.85;5.25;;;;;;;;;;4934685;29;20040;-77
2021/11/05 08:57:08;;;;;;;6.85;6.07;;;;;;;;;;4934038;29;20035;-77
2021/11/05 08:59:35;;;;;;;7.32;6.05;;;;;;;;;;4934725;29;20048;-76
2021/11/05 09:02:02;;;;;;;7.22;5.65;;;;;;;;;;4934375;29;20143;-76
2021/11/05 09:04:28;;;;;;;6.38;5.32;;;;;;;;;;4934715;29;20505;-77
2021/11/05 09:06:53;;;;;;;8.18;5.93;;;;;;;;;;4935091;29;20040;-78
2021/11/05 09:09:21;;;;;;;8.27;6.35;;;;;;;;;;4934493;29;20040;-77
2021/11/05 09:11:49;;;;;;;6.72;5.80;;;;;;;;;;4930459;29;20047;-77
2021/11/05 09:14:17;;;;;;;7.32;6.43;;;;;;;;;;4935196;29;20524;-78
2021/11/05 09:16:43;;;;;;;7.68;6.30;;;;;;;;;;4932858;29;20043;-77
2021/11/05 09:19:09;;;;;;;6.10;5.22;;;;;;;;;;4934815;29;20405;-76
2021/11/05 09:21:35;;;;;;;8.13;5.82;;;;;;;;;;4933731;29;20047;-76
2021/11/05 09:24:02;;;;;;;8.77;6.22;;;;;;;;;;4930553;29;20123;-78
2021/11/05 09:26:28;;;;;;;11.30;6.93;;;;;;;;;;4929227;29;20058;-76
2021/11/05 09:28:54;;;;;;;8.48;6.82;;;;;;;;;;4949943;29;20051;-77
2021/11/05 09:31:20;;;;;;;9.13;7.32;;;;;;;;;;4948820;29;20516;-77
2021/11/05 09:33:45;;;;;;;10.18;6.88;;;;;;;;;;4950888;29;20043;-77
2021/11/05 09:36:11;;;;;;;8.90;7.72;;;;;;;;;;4952625;29;20201;-77
2021/11/05 09:38:37;;;;;;;7.90;6.20;;;;;;;;;;4952631;29;20138;-77
2021/11/05 09:41:05;;;;;;;9.55;7.03;;;;;;;;;;4953737;29;20411;-77
2021/11/05 09:43:31;;;;;;;10.95;8.35;;;;;;;;;;4935839;29;20051;-77
2021/11/05 09:45:57;;;;;;;8.48;6.78;;;;;;;;;;4953067;29;20094;-77
2021/11/05 09:48:23;;;;;;;10.60;8.23;;;;;;;;;;4953827;29;20051;-76
2021/11/05 09:50:49;;;;;;;15.23;7.18;;;;;;;;;;4953510;29;20098;-78
2021/11/05 09:53:17;;;;;;;11.50;8.43;;;;;;;;;;4953030;29;20062;-79
2021/11/05 09:55:51;;;;;;;;;;;;;;;;;;4951840;29;20146;-75
2021/11/05 09:58:17;;;;;;;13.70;8.73;;;;;;;;;;4952816;29;20017;-75
2021/11/05 10:00:43;;;;;;;10.75;8.38;;;;;;;;;;4951688;28;20078;-77
2021/11/05 10:03:08;;;;;;;11.45;8.63;;;;;;;;;;4941794;29;20071;-77
2021/11/05 10:05:37;;;;;;;11.82;8.82;;;;;;;;;;4919508;29;20043;-76
2021/11/05 10:08:03;;;;;;;12.55;9.00;;;;;;;;;;4933986;29;20134;-77
2021/11/05 10:10:40;;;;;;;11.63;8.23;;;;;;;;;;4932096;29;20134;-77
2021/11/05 10:13:05;;;;;;;11.73;8.70;;;;;;;;;;4952280;29;20527;-77
2021/11/05 10:15:43;;;;;;;13.60;9.05;;;;;;;;;;4937913;29;20044;-77
2021/11/05 10:18:15;;;;;;;12.35;10.27;;;;;;;;;;4929941;29;20052;-77
2021/11/05 10:20:43;;;;;;;14.73;9.65;;;;;;;;;;4933130;29;20048;-76
2021/11/05 10:23:08;;;;;;;13.50;9.55;;;;;;;;;;4953060;29;20058;-75
2021/11/05 10:25:40;;;;;;;14.15;10.98;;;;;;;;;;4952423;29;20039;-77
2021/11/05 10:49:51;;;;;;;13.98;10.77;;;;;;;;;;4949128;29;20094;-76
2021/11/05 10:52:20;;;;;;;13.13;10.35;;;;;;;;;;4949168;29;20104;-78
2021/11/05 10:54:59;;;;;;;14.70;10.90;;;;;;;;;;4937027;29;20122;-76
2021/11/05 10:57:41;;;;;;;14.52;11.50;;;;;;;;;;4933421;29;20074;-76
2021/11/05 11:00:23;;;;;;;13.85;9.15;;;;;;;;;;4948933;29;20504;-76
2021/11/05 11:02:49;;;;;;;15.85;11.10;;;;;;;;;;4950718;29;20051;-77
2021/11/05 11:05:31;;;;;;;15.40;10.35;;;;;;;;;;4952752;29;20192;-75
2021/11/05 11:07:59;;;;;;;13.82;10.50;;;;;;;;;;4951887;29;20117;-75
2021/11/05 11:10:33;;;;;;;13.27;10.63;;;;;;;;;;4951590;28;20047;-76
2021/11/05 11:12:59;;;;;;;14.85;10.73;;;;;;;;;;4939228;29;20053;-76
2021/11/05 11:15:36;;;;;;;13.63;9.75;;;;;;;;;;4939213;29;20044;-77
2021/11/05 11:18:03;;;;;;;14.63;12.07;;;;;;;;;;4937042;29;20489;-76
2021/11/05 11:20:36;;;;;;;15.35;12.27;;;;;;;;;;4944445;29;20122;-76
2021/11/05 11:23:03;;;;;;;16.30;11.95;;;;;;;;;;4938346;29;20039;-76
2021/11/05 11:25:29;;;;;;;15.63;12.15;;;;;;;;;;4953849;29;20500;-76
2021/11/05 11:27:54;;;;;;;14.88;11.80;;;;;;;;;;4955584;29;20059;-75
2021/11/05 11:30:20;;;;;;;17.65;10.70;;;;;;;;;;4955549;29;20099;-76
2021/11/05 11:32:49;;;;;;;15.35;12.18;;;;;;;;;;4955926;29;20050;-76
2021/11/05 11:35:15;;;;;;;18.40;12.73;;;;;;;;;;4956310;29;20046;-75
2021/11/05 11:37:42;;;;;;;12.85;10.35;;;;;;;;;;4955210;29;20058;-77
2021/11/05 11:40:09;;;;;;;17.35;11.07;;;;;;;;;;4955622;29;20035;-76
2021/11/05 11:42:36;;;;;;;16.52;12.27;;;;;;;;;;4955304;29;20497;-75
2021/11/05 11:45:06;;;;;;;16.95;12.30;;;;;;;;;;4954754;29;20039;-76
2021/11/05 11:47:46;;;;;;;16.88;11.13;;;;;;;;;;4955093;29;20047;-76
2021/11/05 11:50:30;;;;;;;15.63;11.68;;;;;;;;;;4937581;29;20118;-76
2021/11/05 11:53:09;;;;;;;21.48;12.77;;;;;;;;;;4955566;29;20043;-77
2021/11/05 11:55:38;;;;;;;14.65;10.70;;;;;;;;;;4955532;29;20049;-75
2021/11/05 11:58:10;;;;;;;15.55;11.55;;;;;;;;;;4955083;29;20043;-77
2021/11/05 12:00:36;;;;;;;17.15;11.80;;;;;;;;;;4938336;29;20043;-76
2021/11/05 12:03:08;;;;;;;13.30;10.50;;;;;;;;;;4955739;29;20051;-75
2021/11/05 12:05:33;;;;;;;16.70;12.13;;;;;;;;;;4953673;29;20047;-77
2021/11/05 12:08:19;;;;;;;14.98;11.52;;;;;;;;;;4955547;29;20047;-75
2021/11/05 12:10:54;;;;;;;17.95;11.60;;;;;;;;;;4915106;29;20044;-76
2021/11/05 12:13:34;;;;;;;17.17;12.43;;;;;;;;;;4916734;29;20064;-75
2021/11/05 12:16:09;;;;;;;17.05;12.68;;;;;;;;;;4917214;29;20075;-76
2021/11/05 12:19:09;;;;;;;17.95;12.65;;;;;;;;;;4917702;29;20036;-76
2021/11/05 12:21:38;;;;;;;15.68;11.73;;;;;;;;;;4916505;29;20044;-76
2021/11/05 12:26:50;;;;;;;17.70;13.43;;;;;;;;;;4917137;29;20047;-76
2021/11/05 12:29:37;;;;;;;18.00;12.50;;;;;;;;;;4916472;29;20055;-75
2021/11/05 12:32:15;;;;;;;20.85;13.07;;;;;;;;;;4916908;29;20055;-76
2021/11/05 12:34:45;;;;;;;41.05;15.30;;;;;;;;;;4914932;29;20044;-76
2021/11/05 12:37:27;;;;;;;29.33;16.40;;;;;;;;;;4916150;29;20048;-76
2021/11/05 12:39:53;;;;;;;37.10;15.98;;;;;;;;;;4916774;29;20044;-77
2021/11/05 12:42:20;;;;;;;37.75;16.40;;;;;;;;;;4916747;29;20406;-79
2021/11/05 12:45:00;;;;;;;29.13;16.17;;;;;;;;;;4913968;29;20512;-78
2021/11/05 12:47:47;;;;;;;29.52;16.38;;;;;;;;;;4915940;29;20537;-78
2021/11/05 12:50:21;;;;;;;47.78;14.50;;;;;;;;;;4936721;29;20079;-77
2021/11/05 12:53:02;;;;;;;28.13;15.30;;;;;;;;;;4955100;29;20416;-77
2021/11/05 12:55:35;;;;;;;23.13;9.15;;;;;;;;;;4954794;29;20047;-76
2021/11/05 12:58:04;;;;;;;9.98;8.15;;;;;;;;;;4950973;29;20031;-75
2021/11/05 13:00:35;;;;;;;18.05;7.90;;;;;;;;;;4954736;29;20560;-76
2021/11/05 13:03:03;;;;;;;15.25;8.80;;;;;;;;;;4941789;29;20139;-76
2021/11/05 13:05:30;;;;;;;15.25;8.95;;;;;;;;;;4919261;29;20052;-75
2021/11/05 13:08:01;;;;;;;14.85;9.32;;;;;;;;;;4936463;29;20051;-78
2021/11/05 13:10:32;;;;;;;19.27;10.77;;;;;;;;;;4954416;29;20049;-75
2021/11/05 13:12:59;;;;;;;16.42;10.82;;;;;;;;;;4936905;29;20174;-78
2021/11/05 13:15:26;;;;;;;15.07;9.27;;;;;;;;;;4938692;29;20098;-78
2021/11/05 13:17:52;;;;;;;11.77;9.00;;;;;;;;;;4933948;29;20568;-78
2021/11/05 13:20:24;;;;;;;11.95;8.93;;;;;;;;;;4944439;29;20043;-76
2021/11/05 13:22:52;;;;;;;15.02;10.27;;;;;;;;;;4936497;29;20047;-76
2021/11/05 13:25:37;;;;;;;18.05;9.38;;;;;;;;;;4933485;29;20047;-77
2021/11/05 13:28:05;;;;;;;20.52;12.43;;;;;;;;;;4934782;29;20564;-76
2021/11/05 13:30:34;;;;;;;15.18;11.45;;;;;;;;;;4934955;29;20043;-76
2021/11/05 13:33:01;;;;;;;17.10;11.13;;;;;;;;;;4930423;29;20039;-75
2021/11/05 13:35:27;;;;;;;10.85;7.65;;;;;;;;;;4954055;28;20408;-75
2021/11/05 13:38:00;;;;;;;12.82;10.35;;;;;;;;;;4953746;29;20046;-76
2021/11/05 13:40:26;;;;;;;13.57;10.48;;;;;;;;;;4950557;29;20063;-76
2021/11/05 13:42:51;;;;;;;15.93;11.35;;;;;;;;;;4953775;29;20130;-76
2021/11/05 13:45:17;;;;;;;15.95;11.43;;;;;;;;;;4944681;29;20038;-76
2021/11/05 13:47:46;;;;;;;19.42;12.52;;;;;;;;;;4933909;29;20059;-78
2021/11/05 13:50:18;;;;;;;22.38;12.77;;;;;;;;;;4920550;29;20083;-76
2021/11/05 13:53:04;;;;;;;14.30;11.35;;;;;;;;;;4917124;29;20058;-76
2021/11/05 13:55:33;;;;;;;16.45;12.18;;;;;;;;;;4924951;29;20048;-80
2021/11/05 13:58:00;;;;;;;19.30;13.55;;;;;;;;;;4932232;29;20566;-76
2021/11/05 14:00:27;;;;;;;15.60;10.02;;;;;;;;;;4926472;29;20413;-78
2021/11/05 14:02:55;;;;;;;17.13;12.25;;;;;;;;;;4918684;29;20142;-78
2021/11/05 14:05:26;;;;;;;12.88;9.18;;;;;;;;;;4912654;29;20048;-77
2021/11/05 14:08:04;;;;;;;12.25;10.25;;;;;;;;;;4925378;29;20039;-78
2021/11/05 14:10:30;;;;;;;15.35;11.20;;;;;;;;;;4918244;29;20039;-78
2021/11/05 14:13:01;;;;;;;12.95;10.52;;;;;;;;;;4933761;29;20039;-77
2021/11/05 14:15:28;;;;;;;16.67;11.73;;;;;;;;;;4930077;29;20505;-78
2021/11/05 14:17:54;;;;;;;12.93;10.30;;;;;;;;;;4922903;29;20130;-78
2021/11/05 14:20:30;;;;;;;13.05;8.98;;;;;;;;;;4925230;29;20495;-77
2021/11/05 14:22:55;;;;;;;12.20;10.43;;;;;;;;;;4925061;29;20060;-78
2021/11/05 14:25:25;;;;;;;12.65;9.27;;;;;;;;;;4932109;29;20431;-78
2021/11/05 14:27:52;;;;;;;13.75;10.15;;;;;;;;;;4924990;29;20056;-78
2021/11/05 14:30:25;;;;;;;14.18;10.70;;;;;;;;;;4923207;29;20047;-78
2021/11/05 14:32:57;;;;;;;15.65;10.15;;;;;;;;;;4918668;29;20111;-77
2021/11/05 14:35:28;;;;;;;13.40;10.30;;;;;;;;;;4919591;29;20038;-77
2021/11/05 14:38:03;;;;;;;14.38;9.90;;;;;;;;;;4920824;29;20055;-78
2021/11/05 14:40:31;;;;;;;9.73;8.73;;;;;;;;;;4915571;29;20054;-78
2021/11/05 14:43:11;;;;;;;10.35;8.73;;;;;;;;;;4930042;29;20054;-77
2021/11/05 14:45:42;;;;;;;10.20;7.95;;;;;;;;;;4922285;29;20134;-77
2021/11/05 14:48:17;;;;;;;12.20;9.35;;;;;;;;;;4913426;29;20039;-77
2021/11/05 14:50:47;;;;;;;9.90;8.10;;;;;;;;;;4921039;29;20048;-75
2021/11/05 14:53:40;;;;;;;12.50;9.57;;;;;;;;;;4932213;29;20059;-76